Time;durP1;ratioP1;P1;durP2;ratioP2;P2;SDS_P1;SDS_P2;PMS_P1;PMS_P2;Temp;Humidity;BMP_temperature;BMP_pressure;BME280_temperature;BME280_humidity;BME280_pressure;Samples;Min_cycle;Max_cycle;Signal;HPM_P1;HPM_P2
2024/03/20 00:00:01;;;;;;;6.72;3.92;;;;;;;8.99;100.00;100540.78;4962145;28;20030;-74
2024/03/20 00:02:26;;;;;;;9.50;4.22;;;;;;;8.94;100.00;100544.38;4978082;28;20050;-74
2024/03/20 00:04:51;;;;;;;7.25;3.88;;;;;;;8.90;100.00;100544.13;4973420;28;20037;-74
2024/03/20 00:07:17;;;;;;;7.63;4.05;;;;;;;8.88;100.00;100545.50;4961814;28;20089;-74
2024/03/20 00:09:43;;;;;;;7.10;3.85;;;;;;;8.88;100.00;100549.13;4992159;28;20058;-74
2024/03/20 00:12:08;;;;;;;9.25;4.40;;;;;;;8.84;100.00;100539.72;4976181;28;20030;-74
2024/03/20 00:14:34;;;;;;;6.68;3.92;;;;;;;8.82;100.00;100549.41;4961896;28;20100;-74
2024/03/20 00:17:01;;;;;;;9.25;4.18;;;;;;;8.80;100.00;100544.16;4961959;28;20071;-74
2024/03/20 00:19:27;;;;;;;6.60;4.13;;;;;;;8.78;100.00;100546.41;4974530;28;20031;-74
2024/03/20 00:21:53;;;;;;;5.93;3.90;;;;;;;8.76;100.00;100547.78;4991512;28;20407;-74
2024/03/20 00:24:18;;;;;;;7.40;4.05;;;;;;;8.71;100.00;100549.44;4993893;28;20109;-74
2024/03/20 00:26:44;;;;;;;9.38;4.13;;;;;;;8.69;100.00;100542.53;4977549;28;20023;-74
2024/03/20 00:29:09;;;;;;;7.03;3.80;;;;;;;8.66;100.00;100541.16;4977699;28;20030;-74
2024/03/20 00:31:35;;;;;;;6.00;3.78;;;;;;;8.61;100.00;100530.09;4977625;28;20022;-74
2024/03/20 00:34:01;;;;;;;7.43;4.20;;;;;;;8.61;100.00;100526.47;4961168;28;20448;-75
2024/03/20 00:36:26;;;;;;;5.43;3.45;;;;;;;8.56;100.00;100527.34;4974766;28;20102;-74
2024/03/20 00:38:52;;;;;;;9.15;3.22;;;;;;;8.55;100.00;100528.44;5007740;28;20054;-74
2024/03/20 00:41:18;;;;;;;8.10;3.60;;;;;;;8.53;100.00;100518.78;5001997;28;20033;-74
2024/03/20 00:43:43;;;;;;;6.60;3.70;;;;;;;8.51;100.00;100521.81;4984382;28;20123;-74
2024/03/20 00:46:09;;;;;;;6.97;3.50;;;;;;;8.52;100.00;100515.16;4980654;28;20037;-74
2024/03/20 00:48:34;;;;;;;6.72;3.95;;;;;;;8.46;100.00;100517.09;4960944;28;20030;-74
2024/03/20 00:51:00;;;;;;;7.80;3.95;;;;;;;8.44;100.00;100512.94;4980620;28;20498;-74
2024/03/20 00:53:25;;;;;;;7.60;4.00;;;;;;;8.40;100.00;100511.88;4968980;28;20034;-74
2024/03/20 00:55:51;;;;;;;9.30;4.00;;;;;;;8.39;100.00;100511.03;4961192;28;20526;-74
2024/03/20 00:58:16;;;;;;;10.02;4.00;;;;;;;8.40;100.00;100500.78;4977368;28;20038;-74
2024/03/20 01:00:44;;;;;;;9.10;4.22;;;;;;;8.34;100.00;100501.88;4977131;28;20038;-75
2024/03/20 01:03:09;;;;;;;9.80;4.82;;;;;;;8.32;100.00;100504.09;4961406;28;20092;-74
2024/03/20 01:05:34;;;;;;;8.32;4.68;;;;;;;8.33;100.00;100505.75;4983084;28;20030;-74
2024/03/20 01:08:00;;;;;;;7.47;4.40;;;;;;;8.27;100.00;100508.56;4964905;28;20475;-74
2024/03/20 01:10:25;;;;;;;8.00;4.55;;;;;;;8.22;100.00;100504.97;4963818;28;20037;-74
2024/03/20 01:12:51;;;;;;;8.15;4.68;;;;;;;8.26;100.00;100506.88;4962036;28;20039;-74
2024/03/20 01:15:16;;;;;;;9.52;4.43;;;;;;;8.23;100.00;100501.91;4995160;28;20038;-74
2024/03/20 01:17:42;;;;;;;8.25;4.03;;;;;;;8.20;100.00;100494.16;4965111;28;20398;-74
2024/03/20 01:20:07;;;;;;;8.05;3.90;;;;;;;8.19;100.00;100495.28;4997231;28;20085;-74
2024/03/20 01:22:35;;;;;;;8.32;4.32;;;;;;;8.16;100.00;100497.75;4970624;28;20033;-74
2024/03/20 01:25:01;;;;;;;7.75;4.03;;;;;;;8.18;100.00;100499.13;4972126;28;20034;-74
2024/03/20 01:27:27;;;;;;;8.55;3.92;;;;;;;8.15;100.00;100496.91;4954258;28;20080;-74
2024/03/20 01:29:52;;;;;;;9.88;4.40;;;;;;;8.16;100.00;100498.59;4988278;28;20026;-74
2024/03/20 01:32:17;;;;;;;8.27;4.15;;;;;;;8.14;100.00;100495.28;4997418;28;20117;-74
2024/03/20 01:34:43;;;;;;;10.73;4.15;;;;;;;8.13;100.00;100495.53;4980644;28;20057;-74
2024/03/20 01:37:09;;;;;;;11.02;4.22;;;;;;;8.11;100.00;100493.06;4984860;28;20026;-74
2024/03/20 01:39:34;;;;;;;5.75;3.58;;;;;;;8.06;100.00;100490.31;4950944;28;20029;-74
2024/03/20 01:42:00;;;;;;;9.57;3.78;;;;;;;8.08;100.00;100488.09;4980706;28;20035;-74
2024/03/20 01:44:26;;;;;;;10.30;4.03;;;;;;;8.05;100.00;100488.63;4990280;28;20089;-74
2024/03/20 01:46:52;;;;;;;9.05;3.80;;;;;;;8.05;100.00;100485.84;4961521;28;20027;-74
2024/03/20 01:49:17;;;;;;;6.55;3.72;;;;;;;8.03;100.00;100493.63;4961620;28;20041;-74
2024/03/20 01:51:43;;;;;;;7.93;3.78;;;;;;;8.02;100.00;100484.50;4967045;28;20033;-74
2024/03/20 01:54:08;;;;;;;5.82;3.72;;;;;;;8.01;100.00;100476.47;4987112;28;20041;-74
2024/03/20 01:56:34;;;;;;;10.80;4.00;;;;;;;7.95;100.00;100478.41;4977058;28;20383;-74
2024/03/20 01:59:00;;;;;;;6.88;3.70;;;;;;;7.96;100.00;100479.25;4983927;28;20026;-74
2024/03/20 02:01:25;;;;;;;7.18;3.78;;;;;;;7.98;100.00;100474.25;4999283;28;20558;-74
2024/03/20 02:03:51;;;;;;;6.63;3.53;;;;;;;7.94;100.00;100473.16;4967092;28;20124;-74
2024/03/20 02:06:24;;;;;;;7.03;3.90;;;;;;;7.91;100.00;100470.94;4954176;28;20030;-74
2024/03/20 02:08:50;;;;;;;9.68;3.92;;;;;;;7.87;100.00;100470.69;4952456;28;20030;-74
2024/03/20 02:11:16;;;;;;;6.82;3.63;;;;;;;7.83;100.00;100470.41;4992223;28;20031;-74
2024/03/20 02:13:45;;;;;;;7.45;3.92;;;;;;;7.86;100.00;100471.78;4960526;28;20519;-74
2024/03/20 02:16:12;;;;;;;7.85;3.65;;;;;;;7.83;100.00;100464.88;4997073;28;20096;-74
2024/03/20 02:18:38;;;;;;;5.00;3.38;;;;;;;7.86;100.00;100459.91;4991334;28;20072;-74
2024/03/20 02:21:11;;;;;;;6.78;3.72;;;;;;;7.82;100.00;100462.38;5012184;28;20038;-74
2024/03/20 02:23:36;;;;;;;7.47;3.88;;;;;;;7.79;100.00;100461.00;4996612;28;20034;-74
2024/03/20 02:26:05;;;;;;;6.60;3.90;;;;;;;7.80;100.00;100462.66;4989847;28;20388;-74
2024/03/20 02:28:35;;;;;;;9.65;3.85;;;;;;;7.79;100.00;100460.16;4976980;28;20107;-74
2024/03/20 02:31:01;;;;;;;6.07;3.58;;;;;;;7.80;100.00;100462.66;4979487;28;20034;-74
2024/03/20 02:33:27;;;;;;;7.72;4.20;;;;;;;7.77;100.00;100470.66;4995271;28;20037;-74
2024/03/20 02:35:53;;;;;;;8.20;3.60;;;;;;;7.76;100.00;100464.31;4947644;28;20034;-74
2024/03/20 02:38:20;;;;;;;9.23;4.32;;;;;;;7.74;100.00;100469.28;4968583;28;20041;-74
2024/03/20 02:40:46;;;;;;;8.50;3.97;;;;;;;7.73;100.00;100473.16;4947002;28;20030;-74
2024/03/20 02:43:11;;;;;;;8.75;4.28;;;;;;;7.70;100.00;100465.41;4988195;28;20046;-74
2024/03/20 02:45:36;;;;;;;8.10;4.18;;;;;;;7.71;100.00;100467.06;4954246;28;20027;-74
2024/03/20 02:48:02;;;;;;;8.18;4.28;;;;;;;7.73;100.00;100467.63;4998861;28;20486;-74
2024/03/20 02:50:27;;;;;;;6.95;3.53;;;;;;;7.72;100.00;100457.69;4979099;28;20794;-74
2024/03/20 02:52:53;;;;;;;7.10;3.90;;;;;;;7.67;100.00;100460.44;5000096;28;20033;-74
2024/03/20 02:55:18;;;;;;;7.10;4.07;;;;;;;7.64;100.00;100451.88;4979432;28;20026;-74
2024/03/20 02:57:44;;;;;;;8.25;4.03;;;;;;;7.66;100.00;100466.25;4984155;28;20077;-74
2024/03/20 03:00:10;;;;;;;8.65;4.32;;;;;;;7.63;100.00;100459.31;4966437;28;20047;-74
2024/03/20 03:02:36;;;;;;;6.40;3.65;;;;;;;7.63;100.00;100456.56;4979805;28;20085;-74
2024/03/20 03:05:01;;;;;;;8.32;4.28;;;;;;;7.66;100.00;100457.94;4960035;28;20031;-74
2024/03/20 03:07:27;;;;;;;8.02;3.80;;;;;;;7.64;100.00;100455.47;4957552;28;20045;-74
2024/03/20 03:09:52;;;;;;;7.40;4.05;;;;;;;7.59;100.00;100452.69;5003045;28;20544;-74
2024/03/20 03:12:17;;;;;;;8.48;4.00;;;;;;;7.61;100.00;100450.50;5001879;28;20037;-74
2024/03/20 03:14:43;;;;;;;6.07;3.20;;;;;;;7.62;100.00;100460.44;4992432;28;20078;-74
2024/03/20 03:17:09;;;;;;;8.02;3.58;;;;;;;7.56;100.00;100454.09;4958415;28;20441;-74
2024/03/20 03:19:34;;;;;;;6.93;3.45;;;;;;;7.60;100.00;100454.34;4995178;28;20467;-74
2024/03/20 03:22:00;;;;;;;7.88;3.40;;;;;;;7.58;100.00;100453.81;4959503;28;20647;-74
2024/03/20 03:24:25;;;;;;;6.95;3.58;;;;;;;7.57;100.00;100449.38;5002833;28;20479;-74
2024/03/20 03:26:50;;;;;;;7.57;3.47;;;;;;;7.58;100.00;100451.06;4948221;28;20032;-74
2024/03/20 03:29:16;;;;;;;5.90;3.42;;;;;;;7.55;100.00;100446.91;4961558;28;20026;-74
2024/03/20 03:31:41;;;;;;;7.55;3.50;;;;;;;7.56;100.00;100454.09;4972116;28;20454;-74
2024/03/20 03:34:07;;;;;;;7.80;3.75;;;;;;;7.54;100.00;100447.16;4986202;28;20041;-74
2024/03/20 03:36:34;;;;;;;6.55;3.05;;;;;;;7.57;100.00;100447.44;4958228;28;20471;-74
2024/03/20 03:38:59;;;;;;;9.95;3.30;;;;;;;7.52;100.00;100441.94;4991518;28;20034;-75
2024/03/20 03:41:25;;;;;;;6.88;3.13;;;;;;;7.50;100.00;100443.31;5002031;28;20034;-74
2024/03/20 03:43:50;;;;;;;6.20;3.40;;;;;;;7.47;100.00;100435.56;5002963;28;20030;-74
2024/03/20 03:46:16;;;;;;;7.90;3.97;;;;;;;7.46;100.00;100431.13;4999083;28;20462;-74
2024/03/20 03:48:42;;;;;;;5.03;3.15;;;;;;;7.44;100.00;100431.44;4985867;28;20695;-74
2024/03/20 03:51:08;;;;;;;7.28;3.30;;;;;;;7.44;100.00;100436.94;4979357;28;20034;-74
2024/03/20 03:53:34;;;;;;;7.75;3.58;;;;;;;7.45;100.00;100429.47;5015469;28;20022;-74
2024/03/20 03:56:00;;;;;;;8.10;3.28;;;;;;;7.39;100.00;100435.00;4982239;28;20034;-74
2024/03/20 03:58:25;;;;;;;6.35;2.83;;;;;;;7.42;100.00;100430.03;4962177;28;20061;-74
2024/03/20 04:00:51;;;;;;;6.88;3.40;;;;;;;7.37;100.00;100434.44;4974421;28;20030;-74
2024/03/20 04:03:16;;;;;;;6.32;3.42;;;;;;;7.44;100.00;100433.34;4977964;28;20472;-74
2024/03/20 04:05:44;;;;;;;6.00;3.15;;;;;;;7.37;100.00;100428.91;4978353;28;20027;-74
2024/03/20 04:08:09;;;;;;;5.07;3.33;;;;;;;7.38;100.00;100429.75;4983887;28;20475;-74
2024/03/20 04:10:36;;;;;;;6.10;3.47;;;;;;;7.35;100.00;100433.91;4994046;28;20033;-74
2024/03/20 04:13:02;;;;;;;5.50;3.40;;;;;;;7.34;100.00;100435.00;4986082;28;20057;-74
2024/03/20 04:15:27;;;;;;;6.50;3.28;;;;;;;7.29;100.00;100432.22;4978015;28;20057;-74
2024/03/20 04:17:53;;;;;;;7.97;3.78;;;;;;;7.34;100.00;100440.53;4993865;28;20471;-74
2024/03/20 04:20:19;;;;;;;8.90;3.80;;;;;;;7.30;100.00;100435.81;4961796;28;20026;-74
2024/03/20 04:22:46;;;;;;;7.30;3.83;;;;;;;7.30;100.00;100433.91;4946089;28;20072;-74
2024/03/20 04:25:11;;;;;;;6.50;3.50;;;;;;;7.27;100.00;100434.44;4993849;28;20048;-74
2024/03/20 04:27:37;;;;;;;7.85;3.92;;;;;;;7.26;100.00;100427.25;4986654;28;20494;-74
2024/03/20 04:30:08;;;;;;;8.00;4.18;;;;;;;7.27;100.00;100425.31;4959999;28;20390;-74
2024/03/20 04:32:34;;;;;;;9.15;4.38;;;;;;;7.25;100.00;100430.28;4964687;28;20028;-74
2024/03/20 04:35:00;;;;;;;10.52;3.70;;;;;;;7.25;100.00;100425.59;4979305;28;20037;-74
2024/03/20 04:37:26;;;;;;;6.43;3.85;;;;;;;7.23;100.00;100427.78;4994935;28;20093;-74
2024/03/20 04:39:51;;;;;;;8.82;4.40;;;;;;;7.23;100.00;100421.44;4986688;28;20442;-74
2024/03/20 04:42:17;;;;;;;8.77;4.15;;;;;;;7.19;100.00;100426.69;4959270;28;20027;-74
2024/03/20 04:44:43;;;;;;;9.55;4.20;;;;;;;7.20;100.00;100422.81;4991071;28;20033;-74
2024/03/20 04:47:08;;;;;;;9.05;4.22;;;;;;;7.20;100.00;100425.59;4967587;28;20031;-74
2024/03/20 04:49:34;;;;;;;7.70;4.38;;;;;;;7.16;100.00;100421.72;4962852;28;20033;-74
2024/03/20 04:51:59;;;;;;;9.75;4.55;;;;;;;7.11;100.00;100425.28;4997891;28;20030;-74
2024/03/20 04:54:25;;;;;;;8.00;4.57;;;;;;;7.17;100.00;100426.13;4969384;28;20042;-74
2024/03/20 04:56:50;;;;;;;9.25;4.72;;;;;;;7.10;100.00;100423.66;4992449;28;20026;-74
2024/03/20 04:59:16;;;;;;;9.10;4.40;;;;;;;7.14;100.00;100429.44;4978140;28;20022;-74
2024/03/20 05:01:41;;;;;;;8.00;4.50;;;;;;;7.13;100.00;100420.34;4997602;28;20051;-74
2024/03/20 05:04:07;;;;;;;6.55;3.80;;;;;;;7.12;100.00;100432.47;4981994;28;20084;-74
2024/03/20 05:06:32;;;;;;;8.90;4.18;;;;;;;7.09;100.00;100434.94;4959466;28;20030;-74
2024/03/20 05:08:58;;;;;;;6.55;4.25;;;;;;;7.08;100.00;100445.19;5003838;28;20030;-74
2024/03/20 05:11:23;;;;;;;8.52;4.20;;;;;;;7.05;100.00;100442.97;4997458;28;20030;-74
2024/03/20 05:13:49;;;;;;;7.97;4.35;;;;;;;7.08;100.00;100442.41;4970261;28;20442;-74
2024/03/20 05:16:14;;;;;;;9.65;4.60;;;;;;;7.08;100.00;100436.88;4970598;28;20034;-74
2024/03/20 05:18:40;;;;;;;8.25;4.05;;;;;;;7.07;100.00;100443.50;5010241;28;20025;-74
2024/03/20 05:21:05;;;;;;;7.05;4.47;;;;;;;7.05;100.00;100442.09;5005586;28;20033;-74
2024/03/20 05:23:31;;;;;;;6.25;4.03;;;;;;;7.05;100.00;100444.88;4986460;28;20046;-74
2024/03/20 05:25:57;;;;;;;7.50;4.00;;;;;;;7.02;100.00;100438.00;4986504;28;20025;-74
2024/03/20 05:28:23;;;;;;;8.50;4.25;;;;;;;7.06;100.00;100439.09;4981025;28;20037;-74
2024/03/20 05:30:51;;;;;;;7.13;3.92;;;;;;;7.05;100.00;100433.81;4967765;28;20056;-74
2024/03/20 05:33:17;;;;;;;10.32;4.10;;;;;;;7.01;100.00;100429.97;4967088;28;20089;-74
2024/03/20 05:35:43;;;;;;;8.63;3.65;;;;;;;7.02;100.00;100428.84;4964478;28;20414;-74
2024/03/20 05:38:09;;;;;;;7.80;4.15;;;;;;;7.00;100.00;100428.31;4968088;28;20037;-74
2024/03/20 05:40:34;;;;;;;8.45;4.00;;;;;;;7.02;100.00;100438.00;4961167;28;20030;-74
2024/03/20 05:43:00;;;;;;;7.68;4.25;;;;;;;7.01;100.00;100419.75;4975639;28;20022;-74
2024/03/20 05:45:25;;;;;;;6.03;3.80;;;;;;;6.99;100.00;100426.63;4959226;28;20041;-74
2024/03/20 05:47:51;;;;;;;8.25;4.45;;;;;;;7.01;100.00;100418.91;4994945;28;20596;-74
2024/03/20 05:50:16;;;;;;;9.73;4.80;;;;;;;7.00;100.00;100425.56;4980170;28;20089;-74
2024/03/20 05:52:41;;;;;;;10.27;5.93;;;;;;;6.96;100.00;100418.91;4984247;28;20037;-74
2024/03/20 05:55:08;;;;;;;11.38;6.38;;;;;;;6.97;100.00;100421.41;4980062;28;20031;-74
2024/03/20 05:57:33;;;;;;;12.35;7.15;;;;;;;6.94;100.00;100419.19;4980151;28;20027;-74
2024/03/20 05:59:59;;;;;;;14.35;7.70;;;;;;;6.98;100.00;100423.03;4996317;28;20605;-74
2024/03/20 06:02:24;;;;;;;11.75;7.15;;;;;;;6.99;100.00;100426.63;4963602;28;20046;-74
2024/03/20 06:04:50;;;;;;;17.65;8.38;;;;;;;6.99;100.00;100423.88;4993282;28;20087;-74
2024/03/20 06:07:15;;;;;;;16.25;9.05;;;;;;;6.93;100.00;100429.38;5001352;28;20025;-74
2024/03/20 06:09:41;;;;;;;15.18;8.57;;;;;;;7.00;100.00;100422.78;5002649;28;20442;-74
2024/03/20 06:12:09;;;;;;;17.45;8.35;;;;;;;6.97;100.00;100429.69;4983320;28;20495;-74
2024/03/20 06:14:35;;;;;;;14.25;8.57;;;;;;;6.99;100.00;100432.16;4962961;28;20031;-74
2024/03/20 06:17:01;;;;;;;13.82;8.02;;;;;;;6.95;100.00;100434.63;4947722;28;20026;-74
2024/03/20 06:19:27;;;;;;;11.73;7.22;;;;;;;6.94;100.00;100431.06;4957430;28;20034;-74
2024/03/20 06:21:52;;;;;;;13.20;7.50;;;;;;;6.94;100.00;100431.06;5002055;28;20033;-74
2024/03/20 06:24:17;;;;;;;13.50;6.95;;;;;;;6.99;100.00;100432.16;5002372;28;20041;-74
2024/03/20 06:26:43;;;;;;;11.82;6.57;;;;;;;6.94;100.00;100442.09;5001952;28;20026;-74
2024/03/20 06:29:08;;;;;;;14.05;6.82;;;;;;;7.00;100.00;100442.94;4982488;28;20029;-74
2024/03/20 06:31:35;;;;;;;12.48;6.65;;;;;;;6.96;100.00;100443.75;4979643;28;20027;-74
2024/03/20 06:34:01;;;;;;;10.43;6.07;;;;;;;6.96;100.00;100438.22;4969819;28;20450;-74
2024/03/20 06:36:27;;;;;;;10.43;6.45;;;;;;;6.94;100.00;100441.28;4994903;28;20081;-74
2024/03/20 06:38:53;;;;;;;9.43;6.13;;;;;;;6.98;100.00;100436.03;4992691;28;20046;-74
2024/03/20 06:41:18;;;;;;;9.65;5.28;;;;;;;6.99;100.00;100435.75;4986062;28;20117;-74
2024/03/20 06:43:50;;;;;;;10.23;6.00;;;;;;;6.93;100.00;100440.41;4963209;28;20031;-74
2024/03/20 06:46:16;;;;;;;9.07;5.50;;;;;;;6.96;100.00;100449.28;5006655;28;20070;-74
2024/03/20 06:48:41;;;;;;;10.27;5.75;;;;;;;7.00;100.00;100444.88;4979114;28;20027;-74
2024/03/20 06:51:09;;;;;;;10.90;5.75;;;;;;;6.93;100.00;100440.41;4995371;28;20052;-74
2024/03/20 06:53:35;;;;;;;8.88;5.63;;;;;;;7.02;100.00;100440.75;4988016;28;20037;-74
2024/03/20 06:56:02;;;;;;;9.98;5.30;;;;;;;6.99;100.00;100441.25;4990436;28;20034;-74
2024/03/20 06:58:27;;;;;;;9.20;5.38;;;;;;;7.01;100.00;100441.81;4995508;28;20529;-74
2024/03/20 07:00:53;;;;;;;9.25;5.65;;;;;;;7.02;100.00;100445.41;4961248;28;20042;-74
2024/03/20 07:03:19;;;;;;;11.35;5.72;;;;;;;7.05;100.00;100450.38;4962669;28;20030;-74
2024/03/20 07:05:45;;;;;;;8.00;5.57;;;;;;;7.07;100.00;100450.97;4959990;28;20090;-74
2024/03/20 07:08:10;;;;;;;8.73;5.25;;;;;;;7.09;100.00;100449.59;4979204;28;20438;-69
2024/03/20 07:10:37;;;;;;;9.88;5.38;;;;;;;7.15;100.00;100454.00;4992168;28;20196;-70
2024/03/20 07:13:06;;;;;;;10.60;4.82;;;;;;;7.20;100.00;100439.41;4979046;28;20064;-74
2024/03/20 07:15:36;;;;;;;10.57;5.07;;;;;;;7.24;100.00;100440.50;4961872;28;20035;-74
2024/03/20 07:18:02;;;;;;;10.30;5.18;;;;;;;7.29;100.00;100437.75;4959993;28;20022;-74
2024/03/20 07:20:28;;;;;;;10.35;5.13;;;;;;;7.32;100.00;100439.94;4958584;28;20031;-74
2024/03/20 07:22:53;;;;;;;9.52;5.32;;;;;;;7.38;100.00;100444.41;4955083;28;20537;-74
2024/03/20 07:25:19;;;;;;;8.95;5.32;;;;;;;7.44;100.00;100447.16;4977630;28;20037;-74
2024/03/20 07:27:44;;;;;;;10.35;4.90;;;;;;;7.50;100.00;100437.78;4986485;28;20048;-74
2024/03/20 07:30:11;;;;;;;8.50;4.57;;;;;;;7.57;100.00;100446.63;4985216;28;20113;-74
2024/03/20 07:32:37;;;;;;;10.13;4.55;;;;;;;7.65;100.00;100450.78;4985615;28;20101;-74
2024/03/20 07:35:03;;;;;;;9.95;5.18;;;;;;;7.74;100.00;100449.94;4988081;28;20124;-74
2024/03/20 07:37:29;;;;;;;12.65;5.70;;;;;;;7.82;100.00;100454.91;4998959;28;20065;-74
2024/03/20 07:39:54;;;;;;;11.30;5.55;;;;;;;7.92;100.00;100450.50;4999702;28;20033;-74
2024/03/20 07:42:20;;;;;;;14.45;5.97;;;;;;;8.04;100.00;100459.31;4959592;28;20035;-74
2024/03/20 07:44:47;;;;;;;13.65;5.65;;;;;;;8.14;100.00;100458.50;5002972;28;20033;-74
2024/03/20 07:47:13;;;;;;;12.48;5.38;;;;;;;8.23;100.00;100465.09;4962579;28;20065;-74
2024/03/20 07:49:39;;;;;;;12.07;5.85;;;;;;;8.39;100.00;100465.94;4981317;28;20038;-74
2024/03/20 07:52:05;;;;;;;14.07;5.63;;;;;;;8.51;100.00;100469.22;5003880;28;20386;-74
2024/03/20 07:54:30;;;;;;;11.07;6.38;;;;;;;8.65;100.00;100467.50;4979660;28;20124;-74
2024/03/20 07:56:56;;;;;;;9.77;5.85;;;;;;;8.80;100.00;100463.03;4986104;28;20026;-74
2024/03/20 07:59:23;;;;;;;11.00;5.90;;;;;;;8.97;100.00;100459.91;4999145;28;20455;-74
2024/03/20 08:01:48;;;;;;;14.68;6.47;;;;;;;9.14;100.00;100461.19;4994096;28;20057;-74
2024/03/20 08:04:14;;;;;;;11.82;6.15;;;;;;;9.33;100.00;100460.53;4962388;28;20406;-74
2024/03/20 08:06:39;;;;;;;13.90;6.00;;;;;;;9.50;100.00;100460.97;4966039;28;20026;-74
2024/03/20 08:09:05;;;;;;;12.23;5.10;;;;;;;9.70;100.00;100457.22;4963947;28;20679;-74
2024/03/20 08:11:31;;;;;;;12.23;5.32;;;;;;;9.88;100.00;100463.16;4978054;28;20031;-75
2024/03/20 08:13:57;;;;;;;16.02;5.40;;;;;;;10.04;100.00;100467.47;4946788;28;20057;-75
2024/03/20 08:16:22;;;;;;;11.10;5.32;;;;;;;10.15;100.00;100462.66;4948765;28;20022;-75
2024/03/20 08:18:48;;;;;;;10.45;5.35;;;;;;;10.27;100.00;100463.94;4970481;28;20061;-75
2024/03/20 08:21:15;;;;;;;7.53;4.85;;;;;;;10.39;100.00;100452.44;5001827;28;20029;-74
2024/03/20 08:23:41;;;;;;;10.63;4.75;;;;;;;10.51;100.00;100461.19;4964484;28;20434;-75
2024/03/20 08:26:07;;;;;;;10.40;5.25;;;;;;;10.58;100.00;100457.22;4992788;28;20038;-75
2024/03/20 08:28:33;;;;;;;15.88;5.43;;;;;;;10.69;100.00;100470.69;4974687;28;20038;-74
2024/03/20 08:30:58;;;;;;;11.60;5.43;;;;;;;10.78;100.00;100470.88;4976189;28;20022;-75
2024/03/20 08:33:24;;;;;;;13.23;5.70;;;;;;;10.90;100.00;100484.34;4960929;28;20042;-75
2024/03/20 08:35:57;;;;;;;10.52;4.85;;;;;;;11.04;100.00;100470.56;4978245;28;20031;-75
2024/03/20 08:38:23;;;;;;;9.25;4.47;;;;;;;11.15;100.00;100475.69;4976393;28;20053;-75
2024/03/20 08:40:49;;;;;;;7.97;4.18;;;;;;;11.30;100.00;100477.41;4968808;28;20035;-75
2024/03/20 08:43:15;;;;;;;11.98;5.13;;;;;;;11.41;100.00;100478.09;4965582;28;20035;-75
2024/03/20 08:45:41;;;;;;;11.43;5.05;;;;;;;11.55;100.00;100475.38;4977754;28;20359;-75
2024/03/20 08:48:10;;;;;;;13.63;5.78;;;;;;;11.68;100.00;100482.97;4961903;28;20035;-75
2024/03/20 08:50:39;;;;;;;13.63;5.43;;;;;;;11.87;100.00;100479.34;4971250;28;20026;-75
2024/03/20 08:53:07;;;;;;;9.05;5.00;;;;;;;12.01;100.00;100471.91;5003966;28;20037;-75
2024/03/20 08:55:33;;;;;;;11.85;5.03;;;;;;;12.18;100.00;100471.34;4987068;28;20103;-74
2024/03/20 08:57:58;;;;;;;10.40;4.95;;;;;;;12.35;100.00;100477.13;4990605;28;20113;-75
2024/03/20 09:00:24;;;;;;;9.73;4.20;;;;;;;12.53;100.00;100483.75;4994043;28;20027;-75
2024/03/20 09:02:50;;;;;;;10.10;4.80;;;;;;;12.70;100.00;100484.00;4990329;28;20498;-75
2024/03/20 09:05:15;;;;;;;12.32;4.50;;;;;;;12.89;100.00;100486.66;4975074;28;20058;-75
2024/03/20 09:07:41;;;;;;;9.00;4.18;;;;;;;13.08;100.00;100480.16;4973117;28;20121;-75
2024/03/20 09:10:07;;;;;;;10.68;4.55;;;;;;;13.24;100.00;100472.28;4971589;28;20031;-75
2024/03/20 09:12:32;;;;;;;10.32;4.50;;;;;;;13.41;100.00;100478.06;4964091;28;20026;-75
2024/03/20 09:14:58;;;;;;;9.20;4.85;;;;;;;13.56;100.00;100472.09;4958704;28;20030;-74
2024/03/20 09:17:23;;;;;;;10.05;5.20;;;;;;;13.72;100.00;100474.53;4991138;28;20026;-75
2024/03/20 09:19:49;;;;;;;13.07;5.07;;;;;;;13.79;100.00;100483.28;4967853;28;20031;-75
2024/03/20 09:22:14;;;;;;;14.35;5.40;;;;;;;13.90;100.00;100484.72;4960549;28;20097;-75
2024/03/20 09:24:39;;;;;;;13.65;5.07;;;;;;;14.03;100.00;100494.16;4985693;28;20662;-75
2024/03/20 09:27:05;;;;;;;12.13;5.38;;;;;;;14.13;100.00;100493.09;4963790;28;20037;-75
2024/03/20 09:29:30;;;;;;;12.00;5.38;;;;;;;14.23;100.00;100496.41;4990988;28;20474;-75
2024/03/20 09:31:56;;;;;;;10.85;4.97;;;;;;;14.37;100.00;100496.34;5015499;28;20483;-75
2024/03/20 09:34:21;;;;;;;8.48;5.03;;;;;;;14.53;100.00;100500.41;5008283;28;20029;-75
2024/03/20 09:36:49;;;;;;;8.43;4.45;;;;;;;14.68;100.00;100493.59;4968049;28;20041;-75
2024/03/20 09:39:15;;;;;;;9.27;4.57;;;;;;;14.83;100.00;100503.50;5010114;28;20038;-75
2024/03/20 09:41:41;;;;;;;10.95;4.45;;;;;;;14.99;100.00;100495.50;4993514;28;20030;-75
2024/03/20 09:44:08;;;;;;;5.95;4.18;;;;;;;15.16;100.00;100503.13;4964319;28;20076;-75
2024/03/20 09:46:33;;;;;;;8.95;4.03;;;;;;;15.30;100.00;100505.78;4964355;28;20041;-75
2024/03/20 09:48:59;;;;;;;7.90;3.80;;;;;;;15.45;100.00;100501.69;4970079;28;20027;-75
2024/03/20 09:51:24;;;;;;;6.88;3.03;;;;;;;15.63;100.00;100511.78;4971909;28;20149;-75
2024/03/20 09:53:51;;;;;;;8.93;3.55;;;;;;;15.81;100.00;100496.63;4961621;28;20053;-75
2024/03/20 09:56:18;;;;;;;8.23;3.58;;;;;;;15.95;100.00;100496.47;4967638;28;20075;-75
2024/03/20 09:58:44;;;;;;;11.35;4.20;;;;;;;16.09;100.00;100493.50;4984058;28;20513;-75
2024/03/20 10:01:13;;;;;;;7.47;3.47;;;;;;;16.22;100.00;100500.06;4986470;28;20034;-75
2024/03/20 10:03:39;;;;;;;8.57;3.42;;;;;;;16.29;100.00;100489.16;4971836;28;20510;-75
2024/03/20 10:06:08;;;;;;;9.93;3.05;;;;;;;16.45;100.00;100493.09;4968859;28;20045;-75
2024/03/20 10:08:34;;;;;;;4.43;2.90;;;;;;;16.59;100.00;100495.69;4957740;28;20049;-75
2024/03/20 10:11:00;;;;;;;6.45;2.42;;;;;;;16.74;100.00;100500.75;4963540;28;20398;-75
2024/03/20 10:13:26;;;;;;;10.38;3.10;;;;;;;16.83;100.00;100503.53;4973921;28;20509;-75
2024/03/20 10:16:05;;;;;;;7.15;3.08;;;;;;;16.93;100.00;100494.75;4982762;28;20034;-75
2024/03/20 10:18:30;;;;;;;5.50;2.83;;;;;;;17.06;100.00;100490.06;4963841;28;20538;-75
2024/03/20 10:20:56;;;;;;;8.05;2.60;;;;;;;17.15;100.00;100502.06;4963651;28;20044;-75
2024/03/20 10:23:22;;;;;;;7.95;2.50;;;;;;;17.30;100.00;100502.63;5012197;28;20076;-75
2024/03/20 10:25:48;;;;;;;5.50;2.40;;;;;;;17.37;100.00;100511.34;4998878;28;20026;-75
2024/03/20 10:28:14;;;;;;;6.82;2.17;;;;;;;17.46;100.00;100512.09;4963336;28;20026;-75
2024/03/20 10:30:40;;;;;;;3.88;2.08;;;;;;;17.57;100.00;100513.34;4974325;28;20091;-75
2024/03/20 10:33:07;;;;;;;6.55;1.90;;;;;;;17.67;100.00;100514.13;4999353;28;20026;-75
2024/03/20 10:35:32;;;;;;;6.30;2.20;;;;;;;17.76;100.00;100520.50;4979707;28;20022;-75
2024/03/20 10:37:58;;;;;;;7.55;1.80;;;;;;;17.86;100.00;100517.31;4975488;28;20061;-75
2024/03/20 10:40:23;;;;;;;4.07;1.73;;;;;;;17.95;100.00;100512.44;4963094;28;20034;-75
2024/03/20 10:42:50;;;;;;;5.40;1.90;;;;;;;17.94;100.00;100522.03;4958241;28;20466;-75
2024/03/20 10:45:19;;;;;;;5.22;1.70;;;;;;;18.05;100.00;100514.81;4966042;28;20030;-75
2024/03/20 10:47:45;;;;;;;3.65;1.45;;;;;;;18.15;100.00;100518.38;4959203;28;20479;-75
2024/03/20 10:50:15;;;;;;;6.78;1.90;;;;;;;18.20;100.00;100518.97;4981468;28;20037;-75
2024/03/20 10:52:42;;;;;;;6.95;1.90;;;;;;;18.29;100.00;100524.50;5005648;28;20097;-75
2024/03/20 10:55:10;;;;;;;9.15;2.25;;;;;;;18.40;100.00;100528.53;4982712;28;20034;-75
2024/03/20 10:57:36;;;;;;;5.53;1.60;;;;;;;18.47;100.00;100514.75;4963694;28;20026;-75
2024/03/20 11:00:03;;;;;;;5.13;1.42;;;;;;;18.61;100.00;100513.56;4975636;28;20379;-75
2024/03/20 11:02:30;;;;;;;5.05;1.52;;;;;;;18.79;100.00;100514.25;4973563;28;20088;-75
2024/03/20 11:04:55;;;;;;;2.63;1.08;;;;;;;18.89;100.00;100503.34;4960163;28;20403;-75
2024/03/20 11:07:28;;;;;;;4.75;1.40;;;;;;;19.06;100.00;100510.75;4972643;28;20030;-74
2024/03/20 11:09:56;;;;;;;3.25;1.00;;;;;;;19.21;100.00;100512.03;4984491;28;20030;-75
2024/03/20 11:12:33;;;;;;;3.42;1.23;;;;;;;19.41;100.00;100511.06;4960290;28;20029;-75
2024/03/20 11:15:01;;;;;;;4.53;1.58;;;;;;;19.42;100.00;100504.28;4972597;28;20031;-75